This is the latest recevied weather packets stored in our database for station/object XE2KK-10. If no packets are shown the sender has not sent any weather packets the latest 10 day(s).
| Time | Temp. | Humidity | Pressure | Rain* | Wind** | Luminosity | Snow |
|---|---|---|---|---|---|---|---|
| 1778102653 | 40° C | 19% | 1006.3 hPa | 0 mm | - | 257 W/m² | - |
| 1778102352 | 40° C | 13% | 1006.8 hPa | 0 mm | - | 340 W/m² | - |
| 1778102052 | 39.44° C | 17% | 1006.3 hPa | 0 mm | - | 594 W/m² | - |
| 1778101753 | 40° C | 12% | 1006.6 hPa | 0 mm | - | 587 W/m² | - |
| 1778101453 | 40° C | 11% | 1006.7 hPa | 0 mm | - | 585 W/m² | - |
| 1778101153 | 40.56° C | 11% | 1006.6 hPa | 0 mm | - | 675 W/m² | - |
| 1778100853 | 40° C | 11% | 1006.9 hPa | 0 mm | - | 686 W/m² | - |
| 1778100552 | 40° C | 11% | 1007 hPa | 0 mm | - | 653 W/m² | - |
| 1778100253 | 40° C | 11% | 1007 hPa | 0 mm | - | 714 W/m² | - |
| 1778099952 | 40° C | 12% | 1006.8 hPa | 0 mm | - | 717 W/m² | - |
| 1778099653 | 40° C | 11% | 1007 hPa | 0 mm | - | 749 W/m² | - |
| 1778099353 | 40° C | 12% | 1007.3 hPa | 0 mm | - | 763 W/m² | - |
| 1778099053 | 40° C | 12% | 1007.2 hPa | 0 mm | - | 776 W/m² | - |
| 1778098752 | 40° C | 12% | 1007.2 hPa | 0 mm | - | 776 W/m² | - |
| 1778098452 | 40° C | 12% | 1007.2 hPa | 0 mm | - | 773 W/m² | - |
| 1778098152 | 39.44° C | 12% | 1007.5 hPa | 0 mm | - | 765 W/m² | - |
| 1778097853 | 38.89° C | 15% | 1007.5 hPa | 0 mm | - | 798 W/m² | - |
| 1778097553 | 38.89° C | 12% | 1007.7 hPa | 0 mm | - | 824 W/m² | - |
| 1778097253 | 38.89° C | 15% | 1007.3 hPa | 0 mm | - | 838 W/m² | - |
| 1778096952 | 39.44° C | 14% | 1007.8 hPa | 0 mm | - | 853 W/m² | - |
| 1778096652 | 38.33° C | 17% | 1008.1 hPa | 0 mm | - | 830 W/m² | - |
| 1778096352 | 37.78° C | 22% | 1008 hPa | 0 mm | - | 829 W/m² | - |
| 1778096053 | 37.78° C | 23% | 1008.2 hPa | 0 mm | - | 866 W/m² | - |
| 1778095753 | 37.78° C | 23% | 1008.3 hPa | 0 mm | - | 848 W/m² | - |
| 1778095453 | 37.22° C | 24% | 1008.4 hPa | 0 mm | - | 796 W/m² | - |
* Rain latest hour (hover to see other rain measurements)
** Current wind speed in m/s (hover to see current wind gust speed)